Time;durP1;ratioP1;P1;durP2;ratioP2;P2;SDS_P1;SDS_P2;PMS_P1;PMS_P2;Temp;Humidity;BMP_temperature;BMP_pressure;BME280_temperature;BME280_humidity;BME280_pressure;Samples;Min_cycle;Max_cycle;Signal;HPM_P1;HPM_P2
2022/05/22 00:00:29;;;;;;;7.93;6.70;;;;;;;;;;2073744;28;20673;-55
2022/05/22 00:01:29;;;;;;;7.50;6.57;;;;;;;;;;2073318;28;20168;-56
2022/05/22 00:02:30;;;;;;;13.18;7.55;;;;;;;;;;2073776;28;20169;-55
2022/05/22 00:03:32;;;;;;;9.98;7.15;;;;;;;;;;2073694;28;20292;-53
2022/05/22 00:04:32;;;;;;;13.45;7.40;;;;;;;;;;2073224;28;20776;-58
2022/05/22 00:05:32;;;;;;;11.48;7.63;;;;;;;;;;2073596;28;20545;-59
2022/05/22 00:06:35;;;;;;;10.32;7.55;;;;;;;;;;2073803;28;20197;-60
2022/05/22 00:07:35;;;;;;;9.88;7.93;;;;;;;;;;2072938;28;20571;-57
2022/05/22 00:08:36;;;;;;;8.40;6.90;;;;;;;;;;2073362;28;20215;-58
2022/05/22 00:09:36;;;;;;;10.10;6.60;;;;;;;;;;2073695;28;20580;-56
2022/05/22 00:10:37;;;;;;;8.55;7.55;;;;;;;;;;2072717;28;20590;-57
2022/05/22 00:11:37;;;;;;;10.45;7.20;;;;;;;;;;2072764;28;20180;-57
2022/05/22 00:13:41;;;;;;;11.98;7.35;;;;;;;;;;2073210;28;20208;-56
2022/05/22 00:14:41;;;;;;;8.75;6.88;;;;;;;;;;2080355;28;20259;-55
2022/05/22 00:16:36;;;;;;;10.88;7.53;;;;;;;;;;2079265;28;20191;-53
2022/05/22 00:17:02;;;;;;;8.55;7.63;;;;;;;;;;2075855;28;20179;-56
2022/05/22 00:18:03;;;;;;;10.57;7.55;;;;;;;;;;2080698;28;20279;-54
2022/05/22 00:19:13;;;;;;;9.02;7.45;;;;;;;;;;2081649;28;20291;-55
2022/05/22 00:20:14;;;;;;;12.25;7.70;;;;;;;;;;2083110;28;20195;-53
2022/05/22 00:21:15;;;;;;;15.82;11.70;;;;;;;;;;2084449;28;20195;-53
2022/05/22 00:22:16;;;;;;;16.40;13.10;;;;;;;;;;2084517;28;20188;-54
2022/05/22 00:23:16;;;;;;;19.23;12.52;;;;;;;;;;2084832;28;20208;-52
2022/05/22 00:24:17;;;;;;;17.48;11.82;;;;;;;;;;2084034;28;20178;-53
2022/05/22 00:25:18;;;;;;;14.38;11.23;;;;;;;;;;2084052;28;20177;-53
2022/05/22 00:26:19;;;;;;;11.80;10.63;;;;;;;;;;2084285;28;20168;-53
2022/05/22 00:27:19;;;;;;;15.90;10.23;;;;;;;;;;2083961;28;20196;-53
2022/05/22 00:28:19;;;;;;;12.02;10.18;;;;;;;;;;2084691;28;20212;-53
2022/05/22 00:29:20;;;;;;;10.80;9.43;;;;;;;;;;2084271;28;20195;-52
2022/05/22 00:30:20;;;;;;;11.68;10.23;;;;;;;;;;2072541;28;20188;-53
2022/05/22 00:31:21;;;;;;;12.57;9.30;;;;;;;;;;2068465;28;20188;-54
2022/05/22 00:32:21;;;;;;;12.27;9.10;;;;;;;;;;2090302;28;20175;-54
2022/05/22 00:33:22;;;;;;;11.98;9.73;;;;;;;;;;2092512;28;20277;-52
2022/05/22 00:34:22;;;;;;;15.13;9.23;;;;;;;;;;2089594;28;20168;-51
2022/05/22 00:35:23;;;;;;;9.93;8.77;;;;;;;;;;2090197;28;20180;-55
2022/05/22 00:36:23;;;;;;;12.00;8.40;;;;;;;;;;2092187;28;20202;-54
2022/05/22 00:37:24;;;;;;;11.95;7.82;;;;;;;;;;2084791;28;20255;-52
2022/05/22 00:38:28;;;;;;;10.77;9.23;;;;;;;;;;2084733;28;20184;-51
2022/05/22 00:39:28;;;;;;;8.93;7.38;;;;;;;;;;2092680;28;20175;-56
2022/05/22 00:40:28;;;;;;;12.63;8.23;;;;;;;;;;2092008;28;20203;-53
2022/05/22 00:41:29;;;;;;;12.85;8.90;;;;;;;;;;2084544;28;20323;-53
2022/05/22 00:42:29;;;;;;;11.75;8.90;;;;;;;;;;2089698;28;20210;-54
2022/05/22 00:43:31;;;;;;;13.35;9.63;;;;;;;;;;2083456;28;20211;-53
2022/05/22 00:44:31;;;;;;;12.40;9.90;;;;;;;;;;2084934;28;20318;-54
2022/05/22 00:45:33;;;;;;;12.45;11.15;;;;;;;;;;2086256;28;20168;-55
2022/05/22 00:46:34;;;;;;;13.32;11.85;;;;;;;;;;2086259;28;20218;-52
2022/05/22 00:47:34;;;;;;;15.18;10.77;;;;;;;;;;2086419;28;20184;-52
2022/05/22 00:48:35;;;;;;;15.15;12.77;;;;;;;;;;2085203;28;20164;-55
2022/05/22 00:49:38;;;;;;;14.65;11.85;;;;;;;;;;2077270;28;20244;-54
2022/05/22 00:50:39;;;;;;;15.40;12.55;;;;;;;;;;2069912;28;20170;-51
2022/05/22 00:51:42;;;;;;;14.45;12.93;;;;;;;;;;2085262;28;20664;-52
2022/05/22 00:52:45;;;;;;;15.13;13.18;;;;;;;;;;2084639;28;20230;-52
2022/05/22 00:53:47;;;;;;;18.85;14.65;;;;;;;;;;2077148;28;20213;-52
2022/05/22 00:54:58;;;;;;;15.70;13.55;;;;;;;;;;2077060;28;20177;-51
2022/05/22 00:55:59;;;;;;;18.10;15.95;;;;;;;;;;2086571;28;20203;-51
2022/05/22 00:57:05;;;;;;;12.23;10.07;;;;;;;;;;2092772;28;20697;-52
2022/05/22 00:58:13;;;;;;;11.13;9.13;;;;;;;;;;2085058;28;20235;-52
2022/05/22 00:59:20;;;;;;;10.65;8.48;;;;;;;;;;2084990;28;20279;-52
2022/05/22 01:00:23;;;;;;;10.30;8.48;;;;;;;;;;2084352;28;20161;-52
2022/05/22 01:01:29;;;;;;;14.63;9.57;;;;;;;;;;2092850;28;20193;-52
2022/05/22 01:03:26;;;;;;;14.25;9.77;;;;;;;;;;2091378;28;20186;-52
2022/05/22 01:03:50;;;;;;;13.88;10.68;;;;;;;;;;2089637;28;20168;-54
2022/05/22 01:04:52;;;;;;;15.32;10.85;;;;;;;;;;2084762;28;20248;-52
2022/05/22 01:05:53;;;;;;;11.85;10.63;;;;;;;;;;2084215;28;20260;-54
2022/05/22 01:06:53;;;;;;;21.02;12.77;;;;;;;;;;2083750;28;20628;-52
2022/05/22 01:07:55;;;;;;;15.07;11.80;;;;;;;;;;2085464;28;20207;-52
2022/05/22 01:08:55;;;;;;;18.95;12.68;;;;;;;;;;2085290;28;20170;-52
2022/05/22 01:09:55;;;;;;;15.75;13.10;;;;;;;;;;2076328;28;20192;-52
2022/05/22 01:10:59;;;;;;;14.25;12.73;;;;;;;;;;2085197;28;20190;-52
2022/05/22 01:12:02;;;;;;;13.73;12.32;;;;;;;;;;2084695;28;20222;-52
2022/05/22 01:13:03;;;;;;;15.73;11.60;;;;;;;;;;2076726;28;20209;-52
2022/05/22 01:14:14;;;;;;;12.63;10.52;;;;;;;;;;2077436;28;20184;-55
2022/05/22 01:15:15;;;;;;;12.18;10.98;;;;;;;;;;2086541;28;20179;-52
2022/05/22 01:16:16;;;;;;;13.52;10.68;;;;;;;;;;2078679;28;20260;-58
2022/05/22 01:17:16;;;;;;;15.98;10.98;;;;;;;;;;2078099;28;20211;-54
2022/05/22 01:18:17;;;;;;;11.45;10.30;;;;;;;;;;2077502;28;20176;-54
2022/05/22 01:19:18;;;;;;;13.38;9.27;;;;;;;;;;2085523;28;20171;-53
2022/05/22 01:20:19;;;;;;;15.95;11.25;;;;;;;;;;2085171;28;20219;-52
2022/05/22 01:21:24;;;;;;;17.55;10.27;;;;;;;;;;2085792;28;20267;-52
2022/05/22 01:22:26;;;;;;;15.15;10.25;;;;;;;;;;2092313;28;20564;-54
2022/05/22 01:23:26;;;;;;;11.13;9.52;;;;;;;;;;2094298;28;20743;-52
2022/05/22 01:24:27;;;;;;;14.20;9.90;;;;;;;;;;2094127;28;20293;-53
2022/05/22 01:25:27;;;;;;;12.27;10.18;;;;;;;;;;2079180;28;20184;-55
2022/05/22 01:26:29;;;;;;;13.60;9.95;;;;;;;;;;2069972;28;20170;-54
2022/05/22 01:27:50;;;;;;;13.23;10.05;;;;;;;;;;2080929;28;20172;-57
2022/05/22 01:28:56;;;;;;;10.73;9.60;;;;;;;;;;2078143;28;20173;-52
2022/05/22 01:30:09;;;;;;;15.43;10.30;;;;;;;;;;2081111;28;20183;-53
2022/05/22 01:31:11;;;;;;;12.43;9.50;;;;;;;;;;2086114;28;20245;-52
2022/05/22 01:32:11;;;;;;;11.55;10.43;;;;;;;;;;2086197;28;20251;-54
2022/05/22 01:33:14;;;;;;;15.07;10.32;;;;;;;;;;2085789;28;20208;-53
2022/05/22 01:34:16;;;;;;;12.73;9.40;;;;;;;;;;2085279;28;20470;-54
2022/05/22 01:35:18;;;;;;;10.32;8.85;;;;;;;;;;2085535;28;20176;-55
2022/05/22 01:36:18;;;;;;;10.65;9.48;;;;;;;;;;2086708;28;20235;-53
2022/05/22 01:37:25;;;;;;;11.63;9.70;;;;;;;;;;2085683;28;20188;-54
2022/05/22 01:38:26;;;;;;;14.10;10.82;;;;;;;;;;2086970;28;20172;-52
2022/05/22 01:39:26;;;;;;;13.55;11.75;;;;;;;;;;2086367;28;20195;-54
2022/05/22 01:40:29;;;;;;;13.95;10.98;;;;;;;;;;2077262;28;20185;-52
2022/05/22 01:41:30;;;;;;;16.77;12.10;;;;;;;;;;2077621;28;20575;-54
2022/05/22 01:42:30;;;;;;;11.93;10.70;;;;;;;;;;2085086;28;20690;-54
2022/05/22 01:43:33;;;;;;;14.02;11.15;;;;;;;;;;2084846;28;20200;-52
2022/05/22 01:44:34;;;;;;;14.05;11.18;;;;;;;;;;2083839;28;20187;-52
2022/05/22 01:45:35;;;;;;;14.75;10.52;;;;;;;;;;2076386;28;20177;-54
2022/05/22 01:46:37;;;;;;;13.13;9.45;;;;;;;;;;2066912;28;20177;-51
2022/05/22 01:47:43;;;;;;;13.02;10.27;;;;;;;;;;2077118;28;20170;-54
2022/05/22 01:48:43;;;;;;;15.55;10.63;;;;;;;;;;2089748;28;20260;-54
2022/05/22 01:49:44;;;;;;;11.95;10.48;;;;;;;;;;2086898;28;20184;-53
2022/05/22 01:50:45;;;;;;;14.55;11.65;;;;;;;;;;2084557;28;20683;-53
2022/05/22 01:51:46;;;;;;;15.02;11.77;;;;;;;;;;2084550;28;20648;-53
2022/05/22 01:52:47;;;;;;;17.10;12.00;;;;;;;;;;2083994;28;20208;-55
2022/05/22 01:53:48;;;;;;;17.77;13.27;;;;;;;;;;2084086;28;20206;-52
2022/05/22 01:54:48;;;;;;;15.73;14.02;;;;;;;;;;2083334;28;20835;-53
2022/05/22 01:55:50;;;;;;;18.73;14.43;;;;;;;;;;2075177;28;20272;-53
2022/05/22 01:56:50;;;;;;;17.92;14.88;;;;;;;;;;2076237;28;20195;-52
2022/05/22 01:57:51;;;;;;;20.98;14.52;;;;;;;;;;2084772;28;20176;-55
2022/05/22 01:58:55;;;;;;;18.08;14.02;;;;;;;;;;2084165;28;20168;-56
2022/05/22 02:00:07;;;;;;;17.17;11.68;;;;;;;;;;2085295;28;20172;-53
2022/05/22 02:01:15;;;;;;;19.55;12.85;;;;;;;;;;2091335;28;20176;-53
2022/05/22 02:02:15;;;;;;;16.65;12.18;;;;;;;;;;2084069;28;20208;-52
2022/05/22 02:03:16;;;;;;;22.48;14.32;;;;;;;;;;2076357;28;20197;-54
2022/05/22 02:04:17;;;;;;;17.38;13.57;;;;;;;;;;2075532;28;20267;-54
2022/05/22 02:05:17;;;;;;;17.27;12.32;;;;;;;;;;2075309;28;20712;-54
2022/05/22 02:06:17;;;;;;;19.52;13.90;;;;;;;;;;2074624;28;20196;-55
2022/05/22 02:08:39;;;;;;;17.27;14.32;;;;;;;;;;2082123;28;20535;-56
2022/05/22 02:09:40;;;;;;;18.27;14.18;;;;;;;;;;2082158;28;20184;-56
2022/05/22 02:10:40;;;;;;;16.02;13.10;;;;;;;;;;2090335;28;20191;-54
2022/05/22 02:11:41;;;;;;;18.00;12.77;;;;;;;;;;2082334;28;20202;-53
2022/05/22 02:12:42;;;;;;;18.05;12.80;;;;;;;;;;2073925;28;20230;-54
2022/05/22 02:13:44;;;;;;;17.92;12.02;;;;;;;;;;2081861;28;20687;-56
2022/05/22 02:14:44;;;;;;;12.55;11.10;;;;;;;;;;2089860;28;20180;-57
2022/05/22 02:15:49;;;;;;;16.42;10.43;;;;;;;;;;2073539;28;20187;-53
2022/05/22 02:16:50;;;;;;;13.90;11.25;;;;;;;;;;2075282;28;20177;-52
2022/05/22 02:17:51;;;;;;;17.40;11.77;;;;;;;;;;2082111;28;20181;-54
2022/05/22 02:18:51;;;;;;;19.98;11.82;;;;;;;;;;2081909;28;20164;-55
2022/05/22 02:19:52;;;;;;;19.42;15.20;;;;;;;;;;2081885;28;20172;-55
2022/05/22 02:21:07;;;;;;;22.52;14.55;;;;;;;;;;2082049;28;20211;-55
2022/05/22 02:22:07;;;;;;;31.00;21.25;;;;;;;;;;2081695;28;20615;-55
2022/05/22 02:23:10;;;;;;;37.35;26.98;;;;;;;;;;2081745;28;20230;-52
2022/05/22 02:24:10;;;;;;;29.55;19.48;;;;;;;;;;2073293;28;20176;-53
2022/05/22 02:25:12;;;;;;;22.13;14.48;;;;;;;;;;2081590;28;20779;-52
2022/05/22 02:26:13;;;;;;;19.75;15.07;;;;;;;;;;2081531;28;20258;-56
2022/05/22 02:27:17;;;;;;;23.48;15.77;;;;;;;;;;2075321;28;20185;-57
2022/05/22 02:28:19;;;;;;;23.52;16.30;;;;;;;;;;2075527;28;20214;-53
2022/05/22 02:29:19;;;;;;;20.92;17.30;;;;;;;;;;2081589;28;20692;-52
2022/05/22 02:30:22;;;;;;;23.42;18.85;;;;;;;;;;2079523;28;20206;-53
2022/05/22 02:31:22;;;;;;;27.45;19.75;;;;;;;;;;2073469;28;20251;-52
2022/05/22 02:32:27;;;;;;;25.77;20.90;;;;;;;;;;2073764;28;20580;-53
2022/05/22 02:33:28;;;;;;;33.42;21.77;;;;;;;;;;2064997;28;20280;-56
2022/05/22 02:34:33;;;;;;;27.65;20.33;;;;;;;;;;2065753;28;20181;-55
2022/05/22 02:35:36;;;;;;;24.90;18.98;;;;;;;;;;2081340;28;20758;-53
2022/05/22 02:36:43;;;;;;;19.67;15.27;;;;;;;;;;2082527;28;20164;-53
2022/05/22 02:37:46;;;;;;;20.95;14.60;;;;;;;;;;2081260;28;20168;-54
2022/05/22 02:39:07;;;;;;;19.13;14.27;;;;;;;;;;2081218;28;20191;-55
2022/05/22 02:40:08;;;;;;;20.70;15.88;;;;;;;;;;2072937;28;20221;-56
2022/05/22 02:41:21;;;;;;;22.00;15.77;;;;;;;;;;2074910;28;20177;-55
2022/05/22 02:42:29;;;;;;;18.30;16.38;;;;;;;;;;2074072;28;20641;-52
2022/05/22 02:43:29;;;;;;;21.23;17.02;;;;;;;;;;2072960;28;20274;-56
2022/05/22 02:44:32;;;;;;;19.17;16.95;;;;;;;;;;2072557;28;20173;-53
2022/05/22 02:45:33;;;;;;;23.65;17.70;;;;;;;;;;2072962;28;20542;-54
2022/05/22 02:46:40;;;;;;;23.73;16.83;;;;;;;;;;2072960;28;20212;-53
2022/05/22 02:47:41;;;;;;;23.35;18.33;;;;;;;;;;2073622;28;20224;-56
2022/05/22 02:48:42;;;;;;;26.48;19.15;;;;;;;;;;2080847;28;20168;-52
2022/05/22 02:49:43;;;;;;;28.30;22.27;;;;;;;;;;2081219;28;20179;-52
2022/05/22 02:50:44;;;;;;;34.35;24.73;;;;;;;;;;2089342;28;20186;-56
2022/05/22 02:51:45;;;;;;;30.50;22.85;;;;;;;;;;2073115;28;20715;-55
2022/05/22 02:52:45;;;;;;;33.58;22.77;;;;;;;;;;2072570;28;20200;-56
2022/05/22 02:53:47;;;;;;;32.80;23.13;;;;;;;;;;2081255;28;20175;-54
2022/05/22 02:54:57;;;;;;;25.73;19.08;;;;;;;;;;2082073;28;20172;-55
2022/05/22 02:56:06;;;;;;;25.15;19.60;;;;;;;;;;2081331;28;20188;-53
2022/05/22 02:57:16;;;;;;;23.73;18.08;;;;;;;;;;2083128;28;20276;-53
2022/05/22 02:58:22;;;;;;;21.90;15.52;;;;;;;;;;2081100;28;20169;-54
2022/05/22 02:59:23;;;;;;;24.13;15.77;;;;;;;;;;2080692;28;20495;-53
2022/05/22 03:00:39;;;;;;;22.88;15.13;;;;;;;;;;2081066;28;20251;-53
2022/05/22 03:01:40;;;;;;;22.17;14.35;;;;;;;;;;2074616;28;20657;-55
2022/05/22 03:02:40;;;;;;;19.77;13.65;;;;;;;;;;2072870;28;20185;-53
2022/05/22 03:03:41;;;;;;;15.80;12.40;;;;;;;;;;2080882;28;20195;-53
2022/05/22 03:04:42;;;;;;;19.15;13.20;;;;;;;;;;2080726;28;20270;-54
2022/05/22 03:07:02;;;;;;;21.77;12.23;;;;;;;;;;2083170;28;20168;-54
2022/05/22 03:08:03;;;;;;;16.80;12.52;;;;;;;;;;2081061;28;20188;-54
2022/05/22 03:09:10;;;;;;;14.88;12.50;;;;;;;;;;2073381;28;20171;-55
2022/05/22 03:10:11;;;;;;;19.77;13.25;;;;;;;;;;2072871;28;20184;-52
2022/05/22 03:11:12;;;;;;;16.75;11.95;;;;;;;;;;2081026;28;20160;-55
2022/05/22 03:12:16;;;;;;;13.57;11.95;;;;;;;;;;2081001;28;20164;-53
2022/05/22 03:13:19;;;;;;;15.40;12.10;;;;;;;;;;2073081;28;20212;-53
2022/05/22 03:14:19;;;;;;;20.08;12.18;;;;;;;;;;2072270;28;20183;-54
2022/05/22 03:15:20;;;;;;;20.02;12.60;;;;;;;;;;2081046;28;20160;-56
2022/05/22 03:16:20;;;;;;;12.25;10.93;;;;;;;;;;2080979;28;20534;-54
2022/05/22 03:17:38;;;;;;;19.10;11.07;;;;;;;;;;2075036;28;20676;-53
2022/05/22 03:18:40;;;;;;;15.20;12.82;;;;;;;;;;2080761;28;20308;-54
2022/05/22 03:19:48;;;;;;;20.77;14.48;;;;;;;;;;2080590;28;20543;-54
2022/05/22 03:20:48;;;;;;;23.98;15.63;;;;;;;;;;2081285;28;20172;-56
2022/05/22 03:21:50;;;;;;;30.25;21.95;;;;;;;;;;2080883;28;20168;-56
2022/05/22 03:22:51;;;;;;;86.57;60.45;;;;;;;;;;2072750;28;20291;-55
2022/05/22 03:23:51;;;;;;;92.22;65.05;;;;;;;;;;2080703;28;20636;-53
2022/05/22 03:24:52;;;;;;;62.83;47.72;;;;;;;;;;2067024;28;20575;-55
2022/05/22 03:25:52;;;;;;;87.30;61.33;;;;;;;;;;2064973;28;20220;-55
2022/05/22 03:26:52;;;;;;;89.07;58.72;;;;;;;;;;2072844;28;20188;-56
2022/05/22 03:27:53;;;;;;;75.10;55.08;;;;;;;;;;2073646;28;20215;-56
2022/05/22 03:28:53;;;;;;;72.25;49.97;;;;;;;;;;2078578;28;20164;-56
2022/05/22 03:29:55;;;;;;;71.85;49.67;;;;;;;;;;2073322;28;20263;-56
2022/05/22 03:30:55;;;;;;;74.07;50.33;;;;;;;;;;2081098;28;20176;-53
2022/05/22 03:31:56;;;;;;;70.35;49.70;;;;;;;;;;2081036;28;20215;-57
2022/05/22 03:32:57;;;;;;;71.80;50.35;;;;;;;;;;2080851;28;20191;-55
2022/05/22 03:33:57;;;;;;;105.35;72.35;;;;;;;;;;2080651;28;20272;-54
2022/05/22 03:34:59;;;;;;;78.55;54.80;;;;;;;;;;2081443;28;20164;-56
2022/05/22 03:35:59;;;;;;;77.88;50.90;;;;;;;;;;2080926;28;20267;-56
2022/05/22 03:37:00;;;;;;;73.45;49.22;;;;;;;;;;2072675;28;20184;-56
2022/05/22 03:38:03;;;;;;;61.40;43.58;;;;;;;;;;2072928;28;20236;-56
2022/05/22 03:39:04;;;;;;;62.13;42.13;;;;;;;;;;2073178;28;20169;-55
2022/05/22 03:40:05;;;;;;;58.38;42.17;;;;;;;;;;2081692;28;20231;-59
2022/05/22 03:41:05;;;;;;;57.20;41.05;;;;;;;;;;2081140;28;20168;-54
2022/05/22 03:42:11;;;;;;;59.33;37.47;;;;;;;;;;2085427;28;20191;-52
2022/05/22 03:43:13;;;;;;;45.67;33.15;;;;;;;;;;2086459;28;20203;-52
2022/05/22 03:44:13;;;;;;;44.00;32.80;;;;;;;;;;2086049;28;20187;-54
2022/05/22 03:45:18;;;;;;;46.72;31.27;;;;;;;;;;2077961;28;20184;-53
2022/05/22 03:46:18;;;;;;;44.97;32.90;;;;;;;;;;2078326;28;20185;-52
2022/05/22 03:47:21;;;;;;;42.63;28.98;;;;;;;;;;2086671;28;20176;-53
2022/05/22 03:48:37;;;;;;;38.17;27.20;;;;;;;;;;2078865;28;20172;-54
2022/05/22 03:49:38;;;;;;;37.88;27.30;;;;;;;;;;2083785;28;20302;-55
2022/05/22 03:50:39;;;;;;;41.55;26.02;;;;;;;;;;2083463;28;20282;-52
2022/05/22 03:51:39;;;;;;;36.55;25.63;;;;;;;;;;2082234;28;20188;-55
2022/05/22 03:52:44;;;;;;;28.90;22.42;;;;;;;;;;2080743;28;20176;-55
2022/05/22 03:53:59;;;;;;;37.03;22.08;;;;;;;;;;2082273;28;20167;-53
2022/05/22 03:55:04;;;;;;;27.80;20.27;;;;;;;;;;2080494;28;20187;-52
2022/05/22 03:56:09;;;;;;;21.27;16.60;;;;;;;;;;2080630;28;20168;-54
2022/05/22 03:57:09;;;;;;;19.10;14.18;;;;;;;;;;2072982;28;20177;-54
2022/05/22 03:58:10;;;;;;;19.58;14.85;;;;;;;;;;2080867;28;20167;-57
2022/05/22 03:59:10;;;;;;;20.02;13.77;;;;;;;;;;2080477;28;20180;-54
2022/05/22 04:00:11;;;;;;;17.13;13.43;;;;;;;;;;2080911;28;20176;-56
2022/05/22 04:01:16;;;;;;;17.13;13.38;;;;;;;;;;2081602;28;20543;-54
2022/05/22 04:02:24;;;;;;;21.45;14.35;;;;;;;;;;2080774;28;20152;-54
2022/05/22 04:03:24;;;;;;;20.73;14.13;;;;;;;;;;2080486;28;20239;-55
2022/05/22 04:04:29;;;;;;;14.68;12.50;;;;;;;;;;2080882;28;20226;-55
2022/05/22 04:05:32;;;;;;;19.10;12.85;;;;;;;;;;2080763;28;20176;-56
2022/05/22 04:06:34;;;;;;;16.25;11.90;;;;;;;;;;2080827;28;20244;-56
2022/05/22 04:07:38;;;;;;;15.05;11.82;;;;;;;;;;2080696;28;20184;-54
2022/05/22 04:08:38;;;;;;;16.80;11.88;;;;;;;;;;2080609;28;20208;-53
2022/05/22 04:09:39;;;;;;;18.17;12.18;;;;;;;;;;2072501;28;20230;-57
2022/05/22 04:10:45;;;;;;;16.15;11.82;;;;;;;;;;2080875;28;20172;-54
2022/05/22 04:11:45;;;;;;;14.30;11.18;;;;;;;;;;2081253;28;20659;-55
2022/05/22 04:12:48;;;;;;;13.63;11.25;;;;;;;;;;2080488;28;20168;-54
2022/05/22 04:13:49;;;;;;;13.13;11.85;;;;;;;;;;2072131;28;20940;-56
2022/05/22 04:14:53;;;;;;;15.60;11.93;;;;;;;;;;2072176;28;20572;-54
2022/05/22 04:15:53;;;;;;;16.20;12.45;;;;;;;;;;2070180;28;20280;-56
2022/05/22 04:16:53;;;;;;;17.77;12.90;;;;;;;;;;2079093;28;20188;-55
2022/05/22 04:17:54;;;;;;;19.33;14.60;;;;;;;;;;2080710;28;20179;-55
2022/05/22 04:18:57;;;;;;;15.50;13.32;;;;;;;;;;2078143;28;20904;-53
2022/05/22 04:19:57;;;;;;;15.40;13.00;;;;;;;;;;2090248;28;20168;-56
2022/05/22 04:20:58;;;;;;;20.63;14.52;;;;;;;;;;2082063;28;20640;-54
2022/05/22 04:22:18;;;;;;;18.10;14.10;;;;;;;;;;2075356;28;20184;-54
2022/05/22 04:25:59;;;;;;;20.38;15.60;;;;;;;;;;2084708;28;20164;-55
2022/05/22 04:27:03;;;;;;;21.60;17.38;;;;;;;;;;2090181;28;20178;-54
2022/05/22 04:28:04;;;;;;;21.63;17.23;;;;;;;;;;2082267;28;20222;-54
2022/05/22 04:29:04;;;;;;;24.85;19.27;;;;;;;;;;2081834;28;20212;-55
2022/05/22 04:30:06;;;;;;;18.80;15.85;;;;;;;;;;2082278;28;20195;-53
2022/05/22 04:31:16;;;;;;;22.40;15.68;;;;;;;;;;2075364;28;20169;-53
2022/05/22 04:32:36;;;;;;;17.80;15.68;;;;;;;;;;2076361;28;20177;-53
2022/05/22 04:33:36;;;;;;;18.38;14.15;;;;;;;;;;2073930;28;20197;-55
2022/05/22 04:34:37;;;;;;;17.65;14.00;;;;;;;;;;2073437;28;20177;-53
2022/05/22 04:35:46;;;;;;;18.05;12.80;;;;;;;;;;2076038;28;20161;-54
2022/05/22 04:36:46;;;;;;;14.80;13.35;;;;;;;;;;2081965;28;20623;-56
2022/05/22 04:38:04;;;;;;;16.02;13.90;;;;;;;;;;2082138;28;20199;-55
2022/05/22 04:39:06;;;;;;;19.17;13.40;;;;;;;;;;2073739;28;20175;-53
2022/05/22 04:40:08;;;;;;;15.07;13.15;;;;;;;;;;2073956;28;20587;-54
2022/05/22 04:41:09;;;;;;;15.50;13.32;;;;;;;;;;2073461;28;20195;-55
2022/05/22 04:42:09;;;;;;;20.20;12.93;;;;;;;;;;2082226;28;20176;-56
2022/05/22 04:43:11;;;;;;;15.35;13.70;;;;;;;;;;2081933;28;20192;-53
2022/05/22 04:44:11;;;;;;;18.65;14.20;;;;;;;;;;2081639;28;20234;-57
2022/05/22 04:45:12;;;;;;;17.50;13.65;;;;;;;;;;2083427;28;20176;-55
2022/05/22 04:46:35;;;;;;;17.42;13.00;;;;;;;;;;2084745;28;20198;-55
2022/05/22 04:47:37;;;;;;;15.65;12.68;;;;;;;;;;2090389;28;20194;-55
2022/05/22 04:48:49;;;;;;;16.50;12.90;;;;;;;;;;2080608;28;20245;-56
2022/05/22 04:49:49;;;;;;;15.35;13.65;;;;;;;;;;2082716;28;20632;-53
2022/05/22 04:50:51;;;;;;;16.27;13.23;;;;;;;;;;2081793;28;20199;-55
2022/05/22 04:52:03;;;;;;;14.68;12.63;;;;;;;;;;2082536;28;20179;-53
2022/05/22 04:53:04;;;;;;;21.95;14.95;;;;;;;;;;2081774;28;20617;-56
2022/05/22 04:54:15;;;;;;;18.25;14.25;;;;;;;;;;2074793;28;20610;-54
2022/05/22 04:55:24;;;;;;;23.33;14.48;;;;;;;;;;2074748;28;20169;-57
2022/05/22 04:56:24;;;;;;;18.95;14.68;;;;;;;;;;2081991;28;20200;-55
2022/05/22 04:57:28;;;;;;;15.60;14.00;;;;;;;;;;2082314;28;20176;-54
2022/05/22 04:58:29;;;;;;;18.77;14.02;;;;;;;;;;2081510;28;20168;-53
2022/05/22 04:59:30;;;;;;;20.80;16.88;;;;;;;;;;2073648;28;20177;-54
2022/05/22 05:00:31;;;;;;;20.65;16.55;;;;;;;;;;2073762;28;20201;-56
2022/05/22 05:01:40;;;;;;;18.50;15.73;;;;;;;;;;2081973;28;20271;-56
2022/05/22 05:02:52;;;;;;;24.73;16.60;;;;;;;;;;2083471;28;20753;-54
2022/05/22 05:03:52;;;;;;;23.55;17.15;;;;;;;;;;2081603;28;20180;-54
2022/05/22 05:04:53;;;;;;;20.58;18.33;;;;;;;;;;2073436;28;20185;-54
2022/05/22 05:06:08;;;;;;;22.15;17.95;;;;;;;;;;2083958;28;20605;-55
2022/05/22 05:07:10;;;;;;;20.75;16.95;;;;;;;;;;2081921;28;20183;-54
2022/05/22 05:08:31;;;;;;;19.02;17.02;;;;;;;;;;2081772;28;20184;-55
2022/05/22 05:09:40;;;;;;;21.08;16.55;;;;;;;;;;2081630;28;20724;-54
2022/05/22 05:10:51;;;;;;;19.55;15.52;;;;;;;;;;2074853;28;20200;-55
2022/05/22 05:11:59;;;;;;;17.50;15.43;;;;;;;;;;2074735;28;20180;-55
2022/05/22 05:13:00;;;;;;;16.20;13.20;;;;;;;;;;2073904;28;20221;-54
2022/05/22 05:14:03;;;;;;;14.90;12.45;;;;;;;;;;2081342;28;20295;-55
2022/05/22 05:15:04;;;;;;;11.32;10.23;;;;;;;;;;2073676;28;20319;-54
2022/05/22 05:16:06;;;;;;;11.98;9.05;;;;;;;;;;2065598;28;20170;-57
2022/05/22 05:17:14;;;;;;;10.77;9.68;;;;;;;;;;2075713;28;20187;-55
2022/05/22 05:18:14;;;;;;;10.05;9.02;;;;;;;;;;2080614;28;20164;-57
2022/05/22 05:19:15;;;;;;;9.40;8.57;;;;;;;;;;2081951;28;20199;-54
2022/05/22 05:20:18;;;;;;;13.10;9.40;;;;;;;;;;2074023;28;20632;-56
2022/05/22 05:21:26;;;;;;;11.82;9.35;;;;;;;;;;2075202;28;20255;-56
2022/05/22 05:22:30;;;;;;;15.30;9.52;;;;;;;;;;2082033;28;20180;-56
2022/05/22 05:23:39;;;;;;;8.93;7.95;;;;;;;;;;2083158;28;20165;-57
2022/05/22 05:24:54;;;;;;;9.75;8.82;;;;;;;;;;2082114;28;20165;-58
2022/05/22 05:25:59;;;;;;;10.43;9.35;;;;;;;;;;2074375;28;20157;-53
2022/05/22 05:26:59;;;;;;;9.88;8.57;;;;;;;;;;2082332;28;20211;-53
2022/05/22 05:27:59;;;;;;;9.93;8.93;;;;;;;;;;2081983;28;20188;-58
2022/05/22 05:29:00;;;;;;;10.63;8.57;;;;;;;;;;2081292;28;20172;-55
2022/05/22 05:30:10;;;;;;;12.70;9.70;;;;;;;;;;2079431;28;20185;-56
2022/05/22 05:31:16;;;;;;;11.40;9.60;;;;;;;;;;2084842;28;20230;-59
2022/05/22 05:32:17;;;;;;;11.18;9.18;;;;;;;;;;2080872;28;20226;-56
2022/05/22 05:33:18;;;;;;;11.35;10.25;;;;;;;;;;2083491;28;20259;-54
2022/05/22 05:34:44;;;;;;;11.00;10.00;;;;;;;;;;2080718;28;20544;-57
2022/05/22 05:35:49;;;;;;;11.43;9.50;;;;;;;;;;2085137;28;20572;-56
2022/05/22 05:37:02;;;;;;;11.10;9.38;;;;;;;;;;2083378;28;20601;-58
2022/05/22 05:38:18;;;;;;;10.43;9.32;;;;;;;;;;2084953;28;20687;-55
2022/05/22 05:39:21;;;;;;;10.75;9.70;;;;;;;;;;2083033;28;20179;-57
2022/05/22 05:40:42;;;;;;;11.95;9.30;;;;;;;;;;2077596;28;20689;-53
2022/05/22 05:41:46;;;;;;;13.52;9.57;;;;;;;;;;2082387;28;20176;-55
2022/05/22 05:42:48;;;;;;;14.48;10.07;;;;;;;;;;2083894;28;20163;-56
2022/05/22 05:43:49;;;;;;;10.95;9.77;;;;;;;;;;2082282;28;20204;-54
2022/05/22 05:44:49;;;;;;;13.68;9.88;;;;;;;;;;2073715;28;20177;-55
2022/05/22 05:45:54;;;;;;;12.10;8.85;;;;;;;;;;2082818;28;20168;-57
2022/05/22 05:46:54;;;;;;;10.07;9.05;;;;;;;;;;2081942;28;20168;-55
2022/05/22 05:47:57;;;;;;;15.45;9.60;;;;;;;;;;2073640;28;20173;-57
2022/05/22 05:49:18;;;;;;;12.45;8.95;;;;;;;;;;2076497;28;20227;-56
2022/05/22 05:50:22;;;;;;;13.73;9.93;;;;;;;;;;2074198;28;20211;-53
2022/05/22 05:51:38;;;;;;;13.02;9.50;;;;;;;;;;2076066;28;20538;-57
2022/05/22 05:52:38;;;;;;;14.02;10.27;;;;;;;;;;2081711;28;20175;-57
2022/05/22 05:53:58;;;;;;;11.27;10.07;;;;;;;;;;2074311;28;20189;-53
2022/05/22 05:55:18;;;;;;;11.32;9.98;;;;;;;;;;2074053;28;20169;-54
2022/05/22 05:56:44;;;;;;;11.77;9.80;;;;;;;;;;2074460;28;20177;-55
2022/05/22 05:57:56;;;;;;;10.68;9.57;;;;;;;;;;2073838;28;20239;-58
2022/05/22 05:58:57;;;;;;;10.02;9.02;;;;;;;;;;2065884;28;20201;-55
2022/05/22 06:00:10;;;;;;;10.98;9.63;;;;;;;;;;2067151;28;20260;-56
2022/05/22 06:01:17;;;;;;;13.57;9.63;;;;;;;;;;2073755;28;20670;-56
2022/05/22 06:02:18;;;;;;;11.52;8.73;;;;;;;;;;2082194;28;20578;-54
2022/05/22 06:03:19;;;;;;;10.20;8.63;;;;;;;;;;2081986;28;20203;-54
2022/05/22 06:04:22;;;;;;;11.32;9.07;;;;;;;;;;2082718;28;20613;-54
2022/05/22 06:05:23;;;;;;;16.23;8.85;;;;;;;;;;2086117;28;20178;-55
2022/05/22 06:06:24;;;;;;;15.00;9.25;;;;;;;;;;2083025;28;20196;-56
2022/05/22 06:07:27;;;;;;;13.25;8.25;;;;;;;;;;2075631;28;20175;-54
2022/05/22 06:08:28;;;;;;;10.95;8.38;;;;;;;;;;2073657;28;20567;-57
2022/05/22 06:09:36;;;;;;;10.15;7.72;;;;;;;;;;2074069;28;20199;-58
2022/05/22 06:10:48;;;;;;;16.02;8.02;;;;;;;;;;2081427;28;20191;-57
2022/05/22 06:11:52;;;;;;;9.00;7.38;;;;;;;;;;2084910;28;20189;-55
2022/05/22 06:12:56;;;;;;;10.45;7.78;;;;;;;;;;2075905;28;20695;-59
2022/05/22 06:13:57;;;;;;;9.57;8.57;;;;;;;;;;2094613;22;20190;-56
2022/05/22 06:14:57;;;;;;;9.27;8.32;;;;;;;;;;2067231;28;20464;-59
2022/05/22 06:15:58;;;;;;;9.52;7.97;;;;;;;;;;2065921;28;20680;-56
2022/05/22 06:16:58;;;;;;;9.02;7.32;;;;;;;;;;2072586;28;20176;-62
2022/05/22 06:18:06;;;;;;;12.30;7.35;;;;;;;;;;2081660;28;20179;-54